Time;durP1;ratioP1;P1;durP2;ratioP2;P2;SDS_P1;SDS_P2;PMS_P1;PMS_P2;Temp;Humidity;BMP_temperature;BMP_pressure;BME280_temperature;BME280_humidity;BME280_pressure;Samples;Min_cycle;Max_cycle;Signal;HPM_P1;HPM_P2
2022/11/17 00:01:59;;;;;;;11.93;5.07;;;17.40;61.70;;;;;;5015774;28;20421;-77
2022/11/17 00:04:28;;;;;;;5.63;5.13;;;17.30;60.90;;;;;;5010877;28;20445;-78
2022/11/17 00:06:56;;;;;;;5.53;5.03;;;17.30;60.80;;;;;;5005790;28;20446;-78
2022/11/17 00:09:24;;;;;;;5.23;4.67;;;17.30;60.90;;;;;;4995175;28;20469;-78
2022/11/17 00:14:39;;;;;;;6.47;5.53;;;17.30;60.60;;;;;;4990084;28;20440;-78
2022/11/17 00:17:09;;;;;;;7.13;5.07;;;17.30;60.70;;;;;;4996383;28;20477;-79
2022/11/17 00:22:24;;;;;;;5.50;4.37;;;17.30;60.80;;;;;;4997138;28;20432;-78
2022/11/17 00:24:52;;;;;;;6.03;5.20;;;17.30;60.80;;;;;;4996431;28;20473;-79
2022/11/17 00:27:19;;;;;;;5.27;4.77;;;17.20;60.80;;;;;;4996145;28;20433;-79
2022/11/17 00:29:47;;;;;;;8.37;5.40;;;17.20;60.80;;;;;;4996467;28;20453;-79
2022/11/17 00:35:02;;;;;;;4.73;4.33;;;17.30;60.70;;;;;;4996087;28;20468;-78
2022/11/17 00:37:30;;;;;;;5.20;4.70;;;17.20;61.00;;;;;;4996539;28;20476;-78
2022/11/17 00:39:59;;;;;;;5.23;4.73;;;17.20;60.70;;;;;;4992107;28;20493;-78
2022/11/17 00:42:28;;;;;;;6.80;4.90;;;17.20;60.70;;;;;;4995328;28;20445;-78
2022/11/17 00:44:56;;;;;;;5.53;4.93;;;17.20;60.90;;;;;;4995544;28;20477;-79
2022/11/17 00:47:25;;;;;;;6.33;5.03;;;17.20;60.90;;;;;;4995828;28;20433;-78
2022/11/17 00:49:53;;;;;;;6.50;4.83;;;17.20;60.90;;;;;;4995574;28;20449;-79
2022/11/17 00:52:22;;;;;;;6.20;5.30;;;17.20;60.80;;;;;;4996152;28;20446;-79
2022/11/17 00:54:50;;;;;;;6.23;5.63;;;17.20;60.80;;;;;;4996261;28;20465;-79
2022/11/17 00:57:18;;;;;;;7.40;6.07;;;17.20;60.90;;;;;;4995658;28;20465;-79
2022/11/17 00:59:47;;;;;;;11.30;6.27;;;17.20;60.90;;;;;;4996209;28;20450;-78
2022/11/17 01:02:15;;;;;;;6.83;5.37;;;17.20;60.80;;;;;;4996010;28;20468;-79
2022/11/17 01:04:43;;;;;;;6.70;6.00;;;17.20;61.00;;;;;;4996203;28;20462;-78
2022/11/17 01:07:10;;;;;;;8.10;6.30;;;17.20;61.10;;;;;;4995453;28;20437;-79
2022/11/17 01:09:40;;;;;;;7.63;5.63;;;17.20;61.10;;;;;;4995338;28;20964;-78
2022/11/17 01:12:08;;;;;;;7.00;5.80;;;17.20;61.00;;;;;;5013628;28;20436;-78
2022/11/17 01:14:36;;;;;;;6.03;5.27;;;17.20;61.00;;;;;;5014885;28;20452;-78
2022/11/17 01:17:04;;;;;;;7.37;5.80;;;17.20;60.90;;;;;;5003682;28;20472;-78
2022/11/17 01:19:32;;;;;;;8.67;6.63;;;17.20;60.90;;;;;;4995203;28;20449;-78
2022/11/17 01:22:01;;;;;;;6.00;5.40;;;17.20;61.00;;;;;;4995773;28;20837;-78
2022/11/17 01:24:29;;;;;;;5.97;5.20;;;17.10;60.90;;;;;;4995430;28;20457;-78
2022/11/17 01:26:58;;;;;;;7.17;6.00;;;17.10;61.00;;;;;;4994940;28;20449;-79
2022/11/17 01:29:26;;;;;;;6.23;5.63;;;17.10;60.80;;;;;;4994569;28;20449;-78
2022/11/17 01:31:54;;;;;;;5.33;4.83;;;17.10;60.80;;;;;;4995187;28;20456;-78
2022/11/17 01:34:23;;;;;;;6.60;5.30;;;17.20;60.90;;;;;;4995731;28;20457;-78
2022/11/17 01:39:37;;;;;;;5.47;4.90;;;17.10;60.70;;;;;;4996450;28;20464;-79
2022/11/17 01:42:11;;;;;;;6.90;5.27;;;17.10;60.90;;;;;;4997999;28;20460;-79
2022/11/17 01:44:56;;;;;;;6.73;5.30;;;17.10;60.70;;;;;;4991034;28;20449;-79
2022/11/17 01:47:31;;;;;;;6.47;5.00;;;17.10;60.70;;;;;;4996659;28;20458;-79
2022/11/17 01:50:01;;;;;;;5.60;5.10;;;17.10;60.90;;;;;;4996272;28;20460;-78
2022/11/17 01:52:29;;;;;;;5.10;4.67;;;17.10;61.10;;;;;;4990215;28;20461;-79
2022/11/17 01:54:57;;;;;;;6.10;4.93;;;17.10;61.10;;;;;;4995293;28;20477;-79
2022/11/17 01:57:28;;;;;;;5.37;4.87;;;17.00;61.00;;;;;;4996964;28;20477;-80
2022/11/17 01:59:58;;;;;;;5.57;4.83;;;17.00;60.80;;;;;;4996550;28;20464;-79
2022/11/17 02:02:26;;;;;;;5.23;4.70;;;17.10;60.90;;;;;;4995038;28;20448;-79
2022/11/17 02:04:56;;;;;;;5.57;5.00;;;17.00;60.80;;;;;;4996637;28;20461;-79
2022/11/17 02:07:26;;;;;;;4.90;4.50;;;17.00;60.90;;;;;;4992403;28;20457;-80
2022/11/17 02:09:54;;;;;;;5.10;4.60;;;17.00;60.90;;;;;;4991301;28;20952;-79
2022/11/17 02:12:23;;;;;;;5.70;4.73;;;17.00;60.70;;;;;;4992407;28;20457;-79
2022/11/17 02:14:53;;;;;;;4.90;4.50;;;17.00;60.70;;;;;;4994217;28;20468;-79
2022/11/17 02:17:22;;;;;;;5.37;4.87;;;17.00;60.50;;;;;;4994805;28;20458;-79
2022/11/17 02:19:55;;;;;;;4.80;4.30;;;17.00;60.80;;;;;;4988298;28;20463;-79
2022/11/17 02:22:32;;;;;;;5.10;4.60;;;17.00;60.60;;;;;;4994740;28;20461;-79
2022/11/17 02:25:11;;;;;;;5.40;4.40;;;17.00;60.80;;;;;;4993346;28;20484;-78
2022/11/17 02:27:52;;;;;;;5.00;4.27;;;17.00;60.50;;;;;;4987935;28;20466;-79
2022/11/17 02:30:20;;;;;;;5.60;4.70;;;17.00;60.50;;;;;;4986678;28;20481;-79
2022/11/17 02:32:57;;;;;;;6.47;4.67;;;16.90;60.40;;;;;;4995541;28;20461;-79
2022/11/17 02:35:26;;;;;;;5.27;4.47;;;17.00;60.70;;;;;;4985875;28;20480;-79
2022/11/17 02:37:59;;;;;;;6.00;4.37;;;16.90;60.50;;;;;;4984429;28;20480;-79
2022/11/17 02:40:31;;;;;;;5.60;4.63;;;16.90;60.40;;;;;;4978183;28;20469;-79
2022/11/17 02:45:50;;;;;;;7.13;4.80;;;16.90;60.40;;;;;;4988976;28;20488;-79
2022/11/17 02:48:21;;;;;;;4.80;4.33;;;16.90;60.50;;;;;;4990766;28;20461;-79
2022/11/17 02:50:49;;;;;;;8.70;4.40;;;16.90;60.50;;;;;;4981618;28;20457;-79
2022/11/17 02:53:17;;;;;;;4.57;4.17;;;16.90;60.60;;;;;;4992521;28;20468;-79
2022/11/17 02:55:49;;;;;;;4.80;4.40;;;16.90;60.50;;;;;;4991917;28;20480;-80
2022/11/17 02:58:19;;;;;;;4.77;4.33;;;16.90;60.40;;;;;;4994462;28;20465;-79
2022/11/17 03:00:53;;;;;;;4.60;4.17;;;16.90;60.20;;;;;;4981969;28;20456;-80
2022/11/17 03:03:29;;;;;;;4.90;4.40;;;16.90;60.30;;;;;;4993684;28;20448;-79
2022/11/17 03:06:01;;;;;;;5.00;4.50;;;16.90;60.40;;;;;;4996472;28;20473;-79
2022/11/17 03:08:32;;;;;;;4.83;4.37;;;16.80;60.30;;;;;;4989214;28;20471;-80
2022/11/17 03:11:01;;;;;;;4.47;4.07;;;16.80;60.20;;;;;;4981159;28;20461;-80
2022/11/17 03:13:36;;;;;;;8.73;4.00;;;16.80;60.20;;;;;;4990094;28;20464;-80
2022/11/17 03:16:10;;;;;;;4.47;4.07;;;16.80;60.10;;;;;;4990105;28;20468;-79
2022/11/17 03:18:41;;;;;;;4.97;4.30;;;16.90;60.30;;;;;;4997435;28;20469;-80
2022/11/17 03:21:11;;;;;;;4.67;4.27;;;16.80;60.30;;;;;;4990311;28;20457;-80
2022/11/17 03:23:41;;;;;;;6.07;4.30;;;16.80;60.30;;;;;;4986730;28;20457;-80
2022/11/17 03:26:10;;;;;;;4.73;4.23;;;16.80;60.10;;;;;;4981687;28;20528;-79
2022/11/17 03:28:40;;;;;;;4.20;3.90;;;16.80;60.10;;;;;;4995943;28;20481;-80
2022/11/17 03:31:08;;;;;;;4.77;4.37;;;16.80;60.20;;;;;;4994633;28;20468;-79
2022/11/17 03:33:37;;;;;;;5.03;4.03;;;16.80;60.10;;;;;;4998032;28;20499;-80
2022/11/17 03:36:07;;;;;;;4.80;4.30;;;16.80;60.40;;;;;;4997478;28;20477;-79
2022/11/17 03:38:37;;;;;;;7.33;4.50;;;16.80;60.20;;;;;;4998838;28;20477;-80
2022/11/17 03:41:05;;;;;;;4.97;4.47;;;16.80;60.20;;;;;;4992176;28;20461;-78
2022/11/17 03:43:33;;;;;;;4.43;4.03;;;16.80;60.30;;;;;;4999784;28;20484;-80
2022/11/17 03:46:05;;;;;;;5.73;4.57;;;16.80;60.20;;;;;;4997883;28;21027;-80
2022/11/17 03:48:34;;;;;;;4.40;4.00;;;16.80;60.10;;;;;;4998805;28;20445;-80
2022/11/17 03:51:06;;;;;;;5.30;4.80;;;16.80;60.30;;;;;;4989111;28;20493;-80
2022/11/17 03:53:34;;;;;;;4.30;3.90;;;16.80;60.20;;;;;;4996840;28;20454;-80
2022/11/17 03:56:09;;;;;;;4.40;4.00;;;16.80;60.20;;;;;;4996191;28;20473;-80
2022/11/17 03:58:40;;;;;;;5.80;4.40;;;16.80;60.20;;;;;;4992926;28;20472;-80
2022/11/17 04:01:09;;;;;;;4.67;4.27;;;16.80;60.20;;;;;;4990485;28;20458;-79
2022/11/17 04:03:37;;;;;;;4.60;4.20;;;16.80;60.10;;;;;;4991388;28;20456;-80
2022/11/17 04:06:06;;;;;;;5.60;4.23;;;16.80;60.30;;;;;;4988645;28;20477;-79
2022/11/17 04:08:34;;;;;;;4.40;4.00;;;16.70;60.00;;;;;;4991283;28;20457;-80
2022/11/17 04:16:35;;;;;;;4.33;3.93;;;16.70;60.10;;;;;;4980572;28;20466;-80
2022/11/17 04:19:02;;;;;;;4.73;4.23;;;16.70;60.10;;;;;;4993433;28;20479;-80
2022/11/17 04:21:31;;;;;;;5.13;4.63;;;16.70;60.00;;;;;;4990440;28;20453;-80
2022/11/17 04:23:59;;;;;;;7.07;4.53;;;16.70;60.10;;;;;;4997590;28;20469;-80
2022/11/17 04:29:13;;;;;;;5.40;4.67;;;16.70;59.90;;;;;;4989744;28;20449;-79
2022/11/17 04:31:42;;;;;;;4.73;4.33;;;16.70;60.10;;;;;;4997440;28;20457;-80
2022/11/17 04:34:10;;;;;;;3.97;3.57;;;16.70;59.90;;;;;;4997577;28;20464;-79
2022/11/17 04:36:43;;;;;;;4.47;4.10;;;16.60;60.10;;;;;;4992163;28;20474;-80
2022/11/17 04:39:11;;;;;;;4.50;4.10;;;16.70;60.10;;;;;;4984977;28;20461;-79
2022/11/17 04:41:55;;;;;;;4.23;3.93;;;16.70;59.90;;;;;;4982800;28;20450;-80
2022/11/17 04:44:24;;;;;;;5.03;4.50;;;16.70;60.00;;;;;;4995707;28;20464;-80
2022/11/17 04:46:53;;;;;;;4.60;4.20;;;16.70;60.10;;;;;;4983452;28;20474;-80
2022/11/17 04:49:22;;;;;;;4.53;4.13;;;16.70;59.90;;;;;;4987899;28;20460;-80
2022/11/17 04:51:50;;;;;;;5.00;4.37;;;16.60;60.00;;;;;;4991261;28;20453;-80
2022/11/17 04:54:19;;;;;;;4.30;3.90;;;16.60;60.00;;;;;;4996178;28;20459;-80
2022/11/17 04:56:48;;;;;;;4.30;3.90;;;16.60;59.90;;;;;;4994701;28;20473;-80
2022/11/17 04:59:16;;;;;;;4.60;4.10;;;16.70;59.90;;;;;;4995838;28;20472;-80
2022/11/17 05:01:44;;;;;;;5.00;4.50;;;16.60;59.80;;;;;;4995192;28;20465;-80
2022/11/17 05:04:14;;;;;;;4.60;4.20;;;16.70;59.90;;;;;;4995369;28;20453;-80
2022/11/17 05:06:42;;;;;;;4.67;4.30;;;16.70;59.90;;;;;;4984013;28;20473;-79
2022/11/17 05:09:11;;;;;;;4.67;4.10;;;16.60;59.90;;;;;;4995890;28;20450;-79
2022/11/17 05:14:26;;;;;;;4.77;4.33;;;16.60;59.80;;;;;;4993928;28;20807;-81
2022/11/17 05:17:05;;;;;;;4.13;3.83;;;16.60;59.70;;;;;;4990346;28;20465;-81
2022/11/17 05:19:39;;;;;;;5.80;4.57;;;16.60;59.70;;;;;;4989374;28;20465;-81
2022/11/17 05:23:52;;;;;;;5.33;4.83;;;16.60;59.80;;;;;;4995008;28;20461;-81
2022/11/17 05:24:55;;;;;;;4.00;3.70;;;16.60;59.70;;;;;;4990092;28;20473;-81
2022/11/17 05:27:23;;;;;;;5.50;4.37;;;16.60;59.80;;;;;;4986738;28;20453;-81
2022/11/17 05:29:52;;;;;;;5.77;4.93;;;16.60;59.70;;;;;;4989652;28;20456;-81
2022/11/17 05:32:20;;;;;;;4.80;4.40;;;16.60;59.70;;;;;;4996337;28;20460;-81
2022/11/17 05:34:49;;;;;;;7.00;3.80;;;16.60;59.80;;;;;;4981620;28;20477;-81
2022/11/17 05:37:17;;;;;;;6.30;4.47;;;16.60;59.60;;;;;;4986721;28;20456;-80
2022/11/17 05:39:46;;;;;;;7.73;4.70;;;16.60;59.70;;;;;;4980919;28;21022;-80
2022/11/17 05:42:14;;;;;;;4.90;4.30;;;16.50;59.60;;;;;;4993879;28;20453;-79
2022/11/17 05:44:42;;;;;;;5.53;4.60;;;16.50;59.70;;;;;;4989623;28;20449;-81
2022/11/17 05:47:10;;;;;;;4.97;4.47;;;16.50;59.50;;;;;;4993864;28;20464;-81
2022/11/17 05:49:38;;;;;;;4.60;4.20;;;16.50;59.70;;;;;;4987813;28;20453;-81
2022/11/17 05:52:08;;;;;;;5.30;4.53;;;16.50;59.50;;;;;;4988028;28;20457;-81
2022/11/17 05:54:36;;;;;;;5.43;4.30;;;16.50;59.60;;;;;;4984198;28;20453;-81
2022/11/17 05:57:05;;;;;;;5.27;4.60;;;16.50;59.50;;;;;;4980070;28;20451;-81
2022/11/17 05:59:35;;;;;;;5.43;4.20;;;16.50;59.40;;;;;;4994038;28;20473;-81
2022/11/17 06:02:05;;;;;;;4.60;4.10;;;16.50;59.40;;;;;;4992645;28;20461;-81
2022/11/17 06:04:33;;;;;;;5.07;4.60;;;16.50;59.50;;;;;;4981339;28;20469;-81
2022/11/17 06:07:01;;;;;;;5.03;4.60;;;16.50;59.50;;;;;;4995852;28;20457;-81
2022/11/17 06:09:32;;;;;;;5.43;4.80;;;16.50;59.50;;;;;;4992100;28;20468;-81
2022/11/17 06:12:00;;;;;;;4.90;4.40;;;16.50;59.40;;;;;;4984586;28;20456;-81
2022/11/17 06:14:33;;;;;;;5.17;4.63;;;16.40;59.30;;;;;;4989336;28;20488;-81
2022/11/17 06:17:02;;;;;;;5.20;4.60;;;16.40;59.40;;;;;;4995089;28;20457;-82
2022/11/17 06:19:32;;;;;;;5.57;5.00;;;16.40;59.40;;;;;;4987789;28;20454;-82
2022/11/17 06:22:00;;;;;;;4.87;4.47;;;16.40;60.00;;;;;;4996469;28;20464;-82
2022/11/17 06:24:44;;;;;;;5.20;4.70;;;16.40;59.40;;;;;;4985117;28;20461;-81
2022/11/17 06:27:12;;;;;;;4.90;4.50;;;16.40;59.40;;;;;;4993659;28;20449;-81
2022/11/17 06:29:41;;;;;;;5.30;4.80;;;16.40;59.20;;;;;;4985164;28;20458;-81
2022/11/17 06:32:12;;;;;;;5.83;4.80;;;16.40;59.40;;;;;;4994619;28;20503;-81
2022/11/17 06:34:40;;;;;;;5.87;4.47;;;16.40;59.50;;;;;;4993018;28;20462;-82
2022/11/17 06:37:10;;;;;;;4.73;4.30;;;16.40;59.30;;;;;;4991238;28;20453;-82
2022/11/17 06:39:38;;;;;;;5.07;4.30;;;16.40;59.20;;;;;;4993080;28;20509;-82
2022/11/17 06:42:07;;;;;;;5.70;4.90;;;16.40;59.20;;;;;;4997044;28;20453;-82
2022/11/17 06:44:35;;;;;;;5.00;4.00;;;16.30;59.10;;;;;;4999052;28;20484;-82
2022/11/17 06:47:03;;;;;;;5.27;4.77;;;16.30;59.40;;;;;;4999882;28;20453;-82
2022/11/17 06:49:31;;;;;;;6.30;4.43;;;16.30;59.20;;;;;;4991982;28;20457;-82
2022/11/17 06:51:59;;;;;;;5.20;4.60;;;16.30;59.30;;;;;;4998041;28;20450;-82
2022/11/17 06:54:27;;;;;;;5.00;4.37;;;16.30;59.10;;;;;;5000178;28;20449;-82
2022/11/17 06:56:57;;;;;;;5.70;5.00;;;16.20;59.00;;;;;;4991185;28;20449;-82
2022/11/17 06:59:28;;;;;;;5.67;5.00;;;16.30;59.30;;;;;;4999314;28;20460;-81
2022/11/17 07:01:56;;;;;;;5.23;4.73;;;16.30;59.00;;;;;;4996114;28;20473;-81
2022/11/17 07:04:23;;;;;;;5.40;4.90;;;16.20;59.10;;;;;;5000208;28;20483;-81
2022/11/17 07:06:51;;;;;;;5.00;4.50;;;16.20;59.10;;;;;;5000424;28;20505;-81
2022/11/17 07:09:20;;;;;;;5.40;4.90;;;16.20;59.20;;;;;;5002877;28;20457;-80
2022/11/17 07:11:48;;;;;;;5.00;4.53;;;16.10;59.00;;;;;;4998698;28;20451;-81
2022/11/17 07:14:16;;;;;;;5.87;5.23;;;16.10;59.10;;;;;;4992938;28;20453;-81
2022/11/17 07:16:45;;;;;;;4.80;4.30;;;16.20;59.10;;;;;;4998974;28;20476;-83
2022/11/17 07:19:13;;;;;;;5.23;4.73;;;16.20;59.00;;;;;;4991728;28;20464;-81
2022/11/17 07:21:43;;;;;;;6.37;4.43;;;16.20;59.00;;;;;;4998280;28;20473;-81
2022/11/17 07:24:11;;;;;;;7.00;4.77;;;16.10;58.90;;;;;;4991761;28;20465;-81
2022/11/17 07:26:39;;;;;;;5.53;4.40;;;16.10;59.00;;;;;;4992799;28;20484;-81
2022/11/17 07:29:07;;;;;;;5.53;4.97;;;16.10;59.10;;;;;;4998923;28;20457;-80
2022/11/17 07:31:35;;;;;;;7.13;4.53;;;16.10;59.00;;;;;;4989378;28;20476;-81
2022/11/17 07:34:05;;;;;;;5.57;4.70;;;16.10;58.80;;;;;;4998385;28;20458;-82
2022/11/17 07:36:34;;;;;;;5.67;4.87;;;16.10;58.90;;;;;;4987556;28;20470;-83
2022/11/17 07:39:05;;;;;;;5.33;4.83;;;16.10;59.00;;;;;;4999656;28;20472;-81
2022/11/17 07:41:33;;;;;;;5.87;5.20;;;16.10;58.90;;;;;;4992854;28;20477;-80
2022/11/17 07:44:01;;;;;;;5.57;5.07;;;16.10;58.80;;;;;;4997734;28;20460;-81
2022/11/17 07:46:32;;;;;;;5.57;5.03;;;16.10;58.70;;;;;;4997293;28;20473;-80
2022/11/17 07:49:00;;;;;;;6.20;4.80;;;16.00;59.20;;;;;;4997114;28;20456;-80
2022/11/17 07:51:30;;;;;;;5.07;4.50;;;16.00;58.80;;;;;;4998686;28;20453;-80
2022/11/17 07:53:58;;;;;;;6.03;5.40;;;16.00;58.70;;;;;;4993272;28;20454;-81
2022/11/17 07:56:26;;;;;;;5.57;4.63;;;16.00;58.80;;;;;;4993663;28;20472;-80
2022/11/17 07:58:53;;;;;;;5.13;4.63;;;16.00;58.90;;;;;;4997789;28;20465;-81
2022/11/17 08:01:21;;;;;;;5.50;5.00;;;16.00;58.80;;;;;;4995668;28;20481;-80
2022/11/17 08:03:49;;;;;;;5.40;4.53;;;16.00;59.60;;;;;;4997127;28;20453;-81
2022/11/17 08:06:18;;;;;;;5.13;4.60;;;16.00;58.80;;;;;;4996813;28;20979;-81
2022/11/17 08:08:48;;;;;;;5.33;4.83;;;16.00;58.80;;;;;;4997848;28;20457;-81
2022/11/17 08:11:16;;;;;;;4.90;4.50;;;15.90;58.60;;;;;;4997319;28;20442;-81
2022/11/17 08:13:44;;;;;;;5.33;4.77;;;15.90;58.70;;;;;;4997025;28;20453;-81
2022/11/17 08:16:13;;;;;;;4.80;4.33;;;15.90;58.70;;;;;;4998233;28;20469;-82
2022/11/17 08:18:41;;;;;;;6.00;5.20;;;15.90;58.60;;;;;;4998908;28;20451;-82
2022/11/17 08:21:15;;;;;;;5.50;4.90;;;15.90;58.50;;;;;;4998624;28;20484;-82
2022/11/17 08:23:43;;;;;;;5.10;4.60;;;15.90;58.60;;;;;;4998288;28;20932;-81
2022/11/17 08:26:13;;;;;;;6.30;4.50;;;15.90;58.60;;;;;;4997582;28;20465;-81
2022/11/17 08:28:41;;;;;;;7.53;4.93;;;15.90;58.50;;;;;;4994084;28;20458;-81
2022/11/17 08:31:09;;;;;;;5.87;4.70;;;15.90;58.50;;;;;;4998153;28;20453;-80
2022/11/17 08:33:38;;;;;;;5.83;5.23;;;15.90;58.40;;;;;;4995032;28;20456;-81
2022/11/17 08:36:07;;;;;;;6.20;4.97;;;15.90;58.50;;;;;;4992608;28;20489;-80
2022/11/17 08:38:35;;;;;;;6.17;5.57;;;15.90;58.70;;;;;;4995899;28;20457;-80
2022/11/17 08:41:04;;;;;;;7.83;4.80;;;15.90;58.50;;;;;;4996840;28;20477;-81
2022/11/17 08:43:34;;;;;;;9.57;5.70;;;15.80;58.60;;;;;;4995952;28;20455;-81
2022/11/17 08:46:02;;;;;;;5.73;4.97;;;15.90;58.40;;;;;;5004267;28;20472;-82
2022/11/17 08:48:31;;;;;;;5.90;4.33;;;15.80;58.60;;;;;;5015240;28;20503;-81
2022/11/17 08:51:06;;;;;;;5.90;5.20;;;15.90;58.60;;;;;;5004582;28;20464;-82
2022/11/17 08:53:34;;;;;;;5.90;4.97;;;15.90;58.40;;;;;;4997634;28;20447;-82
2022/11/17 08:56:05;;;;;;;5.83;5.23;;;15.80;58.50;;;;;;4998232;28;20457;-80
2022/11/17 08:58:39;;;;;;;6.20;5.03;;;15.80;58.40;;;;;;4998384;28;20448;-81
2022/11/17 09:01:08;;;;;;;5.47;4.97;;;15.80;58.30;;;;;;4999162;28;20455;-81
2022/11/17 09:03:36;;;;;;;6.33;5.37;;;15.90;58.40;;;;;;4994911;28;20462;-80
2022/11/17 09:06:05;;;;;;;5.73;5.07;;;15.90;58.50;;;;;;4996428;28;20466;-81
2022/11/17 09:08:33;;;;;;;5.97;5.20;;;15.80;58.30;;;;;;4997983;28;20947;-80
2022/11/17 09:11:16;;;;;;;8.00;5.47;;;15.80;58.50;;;;;;4997373;28;20532;-80
2022/11/17 09:13:46;;;;;;;6.20;5.30;;;15.80;58.40;;;;;;4997059;28;20453;-79
2022/11/17 09:16:15;;;;;;;5.77;5.27;;;15.80;58.20;;;;;;4995712;28;20480;-80
2022/11/17 09:18:43;;;;;;;7.50;5.17;;;15.80;58.30;;;;;;5004905;28;20461;-80
2022/11/17 09:21:12;;;;;;;6.37;4.93;;;15.80;58.60;;;;;;4995073;28;20463;-80
2022/11/17 09:23:40;;;;;;;5.27;4.77;;;15.80;58.40;;;;;;4995420;28;20452;-79
2022/11/17 09:26:09;;;;;;;5.93;5.33;;;15.80;58.50;;;;;;4996308;28;20449;-80
2022/11/17 09:28:37;;;;;;;6.10;5.37;;;15.80;58.50;;;;;;4996250;28;20451;-80
2022/11/17 09:31:09;;;;;;;5.50;4.73;;;15.80;58.40;;;;;;4995129;28;20459;-81
2022/11/17 09:33:38;;;;;;;5.43;4.73;;;15.80;58.40;;;;;;4996110;28;20446;-81
2022/11/17 09:36:07;;;;;;;7.07;5.47;;;15.80;58.70;;;;;;4996859;28;20540;-80
2022/11/17 09:38:35;;;;;;;5.50;5.00;;;15.80;58.50;;;;;;4996461;28;20458;-80
2022/11/17 09:41:12;;;;;;;5.37;4.87;;;15.80;58.60;;;;;;4997344;28;20473;-81
2022/11/17 09:43:46;;;;;;;6.03;5.30;;;15.80;58.50;;;;;;4997097;28;20441;-80
2022/11/17 09:46:19;;;;;;;6.00;4.80;;;15.80;58.50;;;;;;4995361;28;20484;-80
2022/11/17 09:48:50;;;;;;;5.40;4.90;;;15.80;58.60;;;;;;4997030;28;20457;-80
2022/11/17 09:51:19;;;;;;;9.40;5.23;;;15.80;58.60;;;;;;4999952;28;20457;-79
2022/11/17 09:53:50;;;;;;;6.00;5.40;;;15.80;58.60;;;;;;4995871;28;20963;-80
2022/11/17 09:56:19;;;;;;;5.90;5.00;;;15.80;58.60;;;;;;4996405;28;20469;-80
2022/11/17 09:58:48;;;;;;;6.40;5.57;;;15.80;58.60;;;;;;4996583;28;20455;-80
2022/11/17 10:01:19;;;;;;;7.33;5.50;;;15.80;58.70;;;;;;4996687;28;20437;-80
2022/11/17 10:03:48;;;;;;;5.47;4.97;;;15.80;58.70;;;;;;4996340;28;21014;-80
2022/11/17 10:06:17;;;;;;;7.53;5.30;;;15.80;58.70;;;;;;4995939;28;20469;-80
2022/11/17 10:08:49;;;;;;;6.27;5.17;;;15.80;58.70;;;;;;5006971;28;20946;-80
2022/11/17 10:11:32;;;;;;;6.07;5.33;;;15.80;58.70;;;;;;4996421;28;20441;-80
2022/11/17 10:14:11;;;;;;;7.80;5.03;;;15.80;58.70;;;;;;4997655;28;20513;-80
2022/11/17 10:16:41;;;;;;;6.00;4.90;;;15.80;58.80;;;;;;5000668;28;20457;-81
2022/11/17 10:19:20;;;;;;;5.67;5.17;;;15.80;59.40;;;;;;5000952;28;20433;-81
2022/11/17 10:21:50;;;;;;;7.23;5.20;;;15.80;59.00;;;;;;5000352;28;20433;-80
2022/11/17 10:24:34;;;;;;;7.90;5.83;;;15.80;58.80;;;;;;4998100;28;20488;-80
2022/11/17 10:27:03;;;;;;;5.90;5.23;;;15.80;58.90;;;;;;5000936;28;20445;-80
2022/11/17 10:29:30;;;;;;;6.63;5.30;;;15.80;58.80;;;;;;5000910;28;20456;-79
2022/11/17 10:32:00;;;;;;;5.80;5.20;;;15.80;58.90;;;;;;5000457;28;20460;-79
2022/11/17 10:34:32;;;;;;;7.40;5.47;;;15.80;59.00;;;;;;4999119;28;20437;-79
2022/11/17 10:37:23;;;;;;;4.70;4.30;;;15.80;58.90;;;;;;4999778;28;20424;-79
2022/11/17 10:39:50;;;;;;;5.53;4.93;;;15.80;58.90;;;;;;5004127;28;20448;-79
2022/11/17 10:42:22;;;;;;;5.40;4.90;;;15.80;58.90;;;;;;4998319;28;20479;-79
2022/11/17 10:44:52;;;;;;;6.87;5.40;;;15.80;59.00;;;;;;4993378;28;20473;-79
2022/11/17 10:47:33;;;;;;;7.00;5.23;;;15.80;59.00;;;;;;5000396;28;20448;-79
2022/11/17 10:50:21;;;;;;;6.37;5.00;;;15.80;58.80;;;;;;4997461;28;20465;-80
2022/11/17 10:52:49;;;;;;;5.93;5.33;;;15.80;58.90;;;;;;4981149;28;20453;-80
2022/11/17 10:55:24;;;;;;;5.80;5.20;;;15.80;58.90;;;;;;4983996;28;20465;-81
2022/11/17 10:57:53;;;;;;;12.80;5.10;;;15.80;58.90;;;;;;4996464;28;20453;-80
2022/11/17 11:00:24;;;;;;;6.30;5.70;;;15.80;58.90;;;;;;4993537;28;20468;-83
2022/11/17 11:03:09;;;;;;;5.07;4.27;;;15.80;58.80;;;;;;4998856;28;20473;-81
2022/11/17 11:05:54;;;;;;;5.07;4.63;;;15.70;58.70;;;;;;4993688;28;20995;-80
2022/11/17 11:08:23;;;;;;;5.83;4.93;;;15.80;58.90;;;;;;4996091;28;20460;-81
2022/11/17 11:10:52;;;;;;;5.47;4.93;;;15.70;58.70;;;;;;4997168;28;20457;-80
2022/11/17 11:13:24;;;;;;;6.73;5.00;;;15.70;58.80;;;;;;4992790;28;20445;-81
2022/11/17 11:15:53;;;;;;;5.47;4.90;;;15.70;58.70;;;;;;4996467;28;20568;-81
2022/11/17 11:18:22;;;;;;;5.27;4.80;;;15.80;58.70;;;;;;4995955;28;20457;-80
2022/11/17 11:20:56;;;;;;;5.10;4.43;;;15.70;59.00;;;;;;4994854;28;20453;-79
2022/11/17 11:23:30;;;;;;;6.43;5.40;;;15.80;59.40;;;;;;4993729;28;20479;-79
2022/11/17 11:26:04;;;;;;;5.30;4.80;;;15.80;59.10;;;;;;4990555;28;20466;-79
2022/11/17 11:28:37;;;;;;;7.50;5.30;;;15.80;59.00;;;;;;4996121;28;20453;-79
2022/11/17 11:31:15;;;;;;;4.90;4.50;;;15.80;58.90;;;;;;4995411;28;20507;-78
2022/11/17 11:33:47;;;;;;;6.10;4.60;;;15.70;59.00;;;;;;4995604;28;20452;-78
2022/11/17 11:36:21;;;;;;;5.43;4.73;;;15.70;59.00;;;;;;4991731;28;20489;-80
2022/11/17 11:38:52;;;;;;;6.37;4.60;;;15.70;58.90;;;;;;4994931;28;20469;-80
2022/11/17 11:41:28;;;;;;;6.00;4.90;;;15.70;58.80;;;;;;4989190;28;20453;-79
2022/11/17 11:44:05;;;;;;;8.17;5.20;;;15.70;58.90;;;;;;4994592;28;20473;-79
2022/11/17 11:46:37;;;;;;;4.80;4.30;;;15.70;58.70;;;;;;4995096;28;20476;-78
2022/11/17 11:49:11;;;;;;;5.43;4.73;;;15.70;58.70;;;;;;4995007;28;20467;-78
2022/11/17 11:51:40;;;;;;;5.20;4.70;;;15.70;58.80;;;;;;4994655;28;20449;-77
2022/11/17 11:54:09;;;;;;;7.13;4.77;;;15.70;58.90;;;;;;4992305;28;20450;-79
2022/11/17 11:56:39;;;;;;;6.00;4.83;;;15.70;58.70;;;;;;4995970;28;20477;-79
2022/11/17 11:59:08;;;;;;;6.90;4.23;;;15.70;58.90;;;;;;4994323;28;20458;-79
2022/11/17 12:01:39;;;;;;;5.33;4.73;;;15.70;58.70;;;;;;4996185;28;20464;-80
2022/11/17 12:04:14;;;;;;;7.10;5.10;;;15.70;58.90;;;;;;4996172;28;20469;-79
2022/11/17 12:06:45;;;;;;;6.33;4.80;;;15.70;58.70;;;;;;4998794;28;20492;-78
2022/11/17 12:09:39;;;;;;;7.60;5.00;;;15.70;58.80;;;;;;4996817;28;20465;-78
2022/11/17 12:12:08;;;;;;;6.73;5.20;;;15.70;58.70;;;;;;4993172;28;20457;-78
2022/11/17 12:14:37;;;;;;;6.07;4.30;;;15.60;58.80;;;;;;4994958;28;20450;-78
2022/11/17 12:17:07;;;;;;;6.20;4.80;;;15.60;58.70;;;;;;4994876;28;20453;-78
2022/11/17 12:19:58;;;;;;;6.10;5.10;;;15.60;58.80;;;;;;4996813;28;20453;-78
2022/11/17 12:22:48;;;;;;;5.77;4.60;;;15.70;58.70;;;;;;4995134;28;20456;-78
2022/11/17 12:25:17;;;;;;;9.67;4.43;;;15.70;58.70;;;;;;4993643;28;20485;-78
2022/11/17 12:27:47;;;;;;;5.93;5.30;;;15.60;58.80;;;;;;4995274;28;20457;-78
2022/11/17 12:30:48;;;;;;;6.40;4.80;;;15.60;58.70;;;;;;4994384;28;20463;-80
2022/11/17 12:33:16;;;;;;;4.70;4.30;;;15.60;58.80;;;;;;4992915;28;20456;-79
2022/11/17 12:35:45;;;;;;;4.97;4.50;;;15.60;58.90;;;;;;4992673;28;20473;-78
2022/11/17 12:38:39;;;;;;;6.30;4.67;;;15.60;58.90;;;;;;4991421;28;20516;-77
2022/11/17 12:41:07;;;;;;;5.17;4.70;;;15.60;58.70;;;;;;4993738;28;20450;-79
2022/11/17 12:43:36;;;;;;;7.30;4.30;;;15.60;58.90;;;;;;4994015;28;20472;-80
2022/11/17 12:46:17;;;;;;;4.53;4.13;;;15.60;58.80;;;;;;4992172;28;20481;-79
2022/11/17 12:48:48;;;;;;;6.20;4.70;;;15.70;58.90;;;;;;4994090;28;20547;-78
2022/11/17 12:51:24;;;;;;;5.13;4.63;;;15.60;58.80;;;;;;4993019;28;20512;-79
2022/11/17 12:53:56;;;;;;;7.20;4.27;;;15.60;58.80;;;;;;4988379;28;20456;-79
2022/11/17 12:56:46;;;;;;;8.90;4.50;;;15.60;58.80;;;;;;4992349;28;20473;-79
2022/11/17 12:59:46;;;;;;;5.43;4.37;;;15.60;59.10;;;;;;4986649;28;20445;-77
2022/11/17 13:02:26;;;;;;;4.97;4.57;;;15.60;59.00;;;;;;4993216;28;20967;-78
2022/11/17 13:04:56;;;;;;;6.33;4.57;;;15.60;59.00;;;;;;4993119;28;20472;-78
2022/11/17 13:07:26;;;;;;;5.20;4.70;;;15.60;59.00;;;;;;4994763;28;20457;-78
2022/11/17 13:09:55;;;;;;;4.53;4.13;;;15.60;59.10;;;;;;4993724;28;20536;-78
2022/11/17 13:12:24;;;;;;;6.80;4.37;;;15.60;59.00;;;;;;4995635;28;20507;-78
2022/11/17 13:14:53;;;;;;;5.03;4.30;;;15.60;58.90;;;;;;4993104;28;20473;-78
2022/11/17 13:17:23;;;;;;;5.60;5.00;;;15.60;59.20;;;;;;4993807;28;20963;-78
2022/11/17 13:19:58;;;;;;;6.17;4.60;;;15.60;59.00;;;;;;4991646;28;20452;-78
2022/11/17 13:22:27;;;;;;;7.23;5.20;;;15.60;59.00;;;;;;4991977;28;20448;-77
2022/11/17 13:24:56;;;;;;;6.20;4.60;;;15.60;59.00;;;;;;4992287;28;20484;-78
2022/11/17 13:27:25;;;;;;;7.70;4.87;;;15.60;58.90;;;;;;4993594;28;20454;-79
2022/11/17 13:30:08;;;;;;;5.60;5.00;;;15.60;59.10;;;;;;4993802;28;20461;-78